Time,TemperatureF,DewpointF,PressureIn,WindDirection,WindDirectionDegrees,WindSpeedMPH,WindSpeedGustMPH,Humidity,HourlyPrecipIn,Conditions,Clouds,dailyrainin,SoftwareType,DateUTC
2013-12-16 00:00:00,43.8,41.0,30.10,North,5,4.0,-999.0,89,-99.99,,,0.00,weatherlink.com 1.10,2013-12-16 05:00:00,
2013-12-16 00:15:00,43.6,40.0,30.11,North,5,4.0,-999.0,88,-99.99,,,0.00,weatherlink.com 1.10,2013-12-16 05:15:00,
2013-12-16 00:30:00,43.2,40.0,30.11,North,5,3.0,-999.0,87,-99.99,,,0.00,weatherlink.com 1.10,2013-12-16 05:30:00,
2013-12-16 00:45:00,42.7,39.0,30.11,North,5,4.0,-999.0,85,-99.99,,,0.00,weatherlink.com 1.10,2013-12-16 05:45:00,
2013-12-16 01:00:00,42.4,39.0,30.11,North,5,3.0,-999.0,86,-99.99,,,0.00,weatherlink.com 1.10,2013-12-16 06:00:00,
2013-12-16 01:15:00,42.0,38.0,30.11,North,5,4.0,-999.0,85,-99.99,,,0.00,weatherlink.com 1.10,2013-12-16 06:15:00,
2013-12-16 01:30:00,41.8,38.0,30.11,North,5,1.0,-999.0,85,-99.99,,,0.00,weatherlink.com 1.10,2013-12-16 06:30:00,
2013-12-16 01:45:00,41.3,37.0,30.11,North,5,5.0,-999.0,86,-99.99,,,0.00,weatherlink.com 1.10,2013-12-16 06:45:00,
2013-12-16 02:00:00,40.9,37.0,30.12,North,5,2.0,-999.0,87,-99.99,,,0.00,weatherlink.com 1.10,2013-12-16 07:00:00,
2013-12-16 02:15:00,40.6,37.0,30.12,North,5,2.0,-999.0,85,-99.99,,,0.00,weatherlink.com 1.10,2013-12-16 07:15:00,
2013-12-16 02:30:00,40.2,36.0,30.12,North,5,1.0,-999.0,85,-99.99,,,0.00,weatherlink.com 1.10,2013-12-16 07:30:00,
2013-12-16 02:45:00,39.8,36.0,30.12,North,5,2.0,-999.0,86,-99.99,,,0.00,weatherlink.com 1.10,2013-12-16 07:45:00,
2013-12-16 03:00:00,39.1,35.0,30.13,North,5,3.0,-999.0,86,-99.99,,,0.00,weatherlink.com 1.10,2013-12-16 08:00:00,
2013-12-16 03:15:00,38.7,35.0,30.13,North,5,9.0,-999.0,85,-99.99,,,0.00,weatherlink.com 1.10,2013-12-16 08:15:00,
2013-12-16 03:31:00,38.7,34.0,30.13,North,5,6.0,-999.0,84,-99.99,,,0.00,weatherlink.com 1.10,2013-12-16 08:31:00,
2013-12-16 03:46:00,38.8,34.0,30.12,North,5,5.0,-999.0,82,-99.99,,,0.00,weatherlink.com 1.10,2013-12-16 08:46:00,
2013-12-16 04:01:00,38.7,34.0,30.12,North,5,9.0,-999.0,82,-99.99,,,0.00,weatherlink.com 1.10,2013-12-16 09:01:00,
2013-12-16 04:16:00,38.8,34.0,30.12,North,5,2.0,-999.0,82,-99.99,,,0.00,weatherlink.com 1.10,2013-12-16 09:16:00,
2013-12-16 04:31:00,38.8,33.0,30.12,North,5,4.0,-999.0,81,-99.99,,,0.00,weatherlink.com 1.10,2013-12-16 09:31:00,
2013-12-16 04:46:00,39.0,33.0,30.13,North,5,9.0,-999.0,80,-99.99,,,0.00,weatherlink.com 1.10,2013-12-16 09:46:00,
2013-12-16 05:01:00,39.2,34.0,30.13,North,5,6.0,-999.0,80,-99.99,,,0.00,weatherlink.com 1.10,2013-12-16 10:01:00,
2013-12-16 05:16:00,39.0,33.0,30.13,North,5,7.0,-999.0,79,-99.99,,,0.00,weatherlink.com 1.10,2013-12-16 10:16:00,
2013-12-16 05:31:00,38.7,33.0,30.14,North,5,8.0,-999.0,80,-99.99,,,0.00,weatherlink.com 1.10,2013-12-16 10:31:00,
2013-12-16 05:46:00,38.1,33.0,30.14,North,5,6.0,-999.0,82,-99.99,,,0.00,weatherlink.com 1.10,2013-12-16 10:46:00,
2013-12-16 06:01:00,38.0,33.0,30.15,North,5,4.0,-999.0,82,-99.99,,,0.00,weatherlink.com 1.10,2013-12-16 11:01:00,
2013-12-16 06:16:00,37.7,33.0,30.16,North,5,6.0,-999.0,83,-99.99,,,0.00,weatherlink.com 1.10,2013-12-16 11:16:00,
2013-12-16 06:31:00,37.4,33.0,30.16,North,5,6.0,-999.0,83,-99.99,,,0.00,weatherlink.com 1.10,2013-12-16 11:31:00,
2013-12-16 06:46:00,37.3,33.0,30.17,North,5,7.0,-999.0,83,-99.99,,,0.00,weatherlink.com 1.10,2013-12-16 11:46:00,
2013-12-16 07:01:00,37.2,33.0,30.18,North,5,4.0,-999.0,84,-99.99,,,0.00,weatherlink.com 1.10,2013-12-16 12:01:00,
2013-12-16 07:16:00,37.3,33.0,30.18,North,5,5.0,-999.0,83,-99.99,,,0.00,weatherlink.com 1.10,2013-12-16 12:16:00,
2013-12-16 07:31:00,38.0,33.0,30.19,North,5,3.0,-999.0,82,-99.99,,,0.00,weatherlink.com 1.10,2013-12-16 12:31:00,
2013-12-16 07:46:00,38.7,33.0,30.19,North,5,4.0,-999.0,80,-99.99,,,0.00,weatherlink.com 1.10,2013-12-16 12:46:00,
2013-12-16 08:01:00,39.3,33.0,30.20,North,5,4.0,-999.0,78,-99.99,,,0.00,weatherlink.com 1.10,2013-12-16 13:01:00,
2013-12-16 08:16:00,40.0,34.0,30.20,North,5,6.0,-999.0,78,-99.99,,,0.00,weatherlink.com 1.10,2013-12-16 13:16:00,
2013-12-16 08:31:00,41.0,34.0,30.21,North,5,5.0,-999.0,76,-99.99,,,0.00,weatherlink.com 1.10,2013-12-16 13:31:00,
2013-12-16 08:46:00,42.2,35.0,30.21,North,5,3.0,-999.0,75,-99.99,,,0.00,weatherlink.com 1.10,2013-12-16 13:46:00,
2013-12-16 09:01:00,43.1,35.0,30.22,North,5,3.0,-999.0,72,-99.99,,,0.00,weatherlink.com 1.10,2013-12-16 14:01:00,
2013-12-16 09:16:00,44.2,35.0,30.22,North,5,7.0,-999.0,70,-99.99,,,0.00,weatherlink.com 1.10,2013-12-16 14:16:00,
2013-12-16 09:31:00,45.4,35.0,30.23,North,5,2.0,-999.0,68,-99.99,,,0.00,weatherlink.com 1.10,2013-12-16 14:31:00,
2013-12-16 09:46:00,46.2,35.0,30.23,North,5,7.0,-999.0,65,-99.99,,,0.00,weatherlink.com 1.10,2013-12-16 14:46:00,
2013-12-16 10:01:00,46.8,36.0,30.24,North,5,7.0,-999.0,66,-99.99,,,0.00,weatherlink.com 1.10,2013-12-16 15:01:00,
2013-12-16 10:16:00,47.6,36.0,30.23,North,5,7.0,-999.0,64,-99.99,,,0.00,weatherlink.com 1.10,2013-12-16 15:16:00,
2013-12-16 10:31:00,48.3,36.0,30.23,North,5,6.0,-999.0,63,-99.99,,,0.00,weatherlink.com 1.10,2013-12-16 15:31:00,
2013-12-16 10:47:00,48.8,37.0,30.23,North,5,5.0,-999.0,63,-99.99,,,0.00,weatherlink.com 1.10,2013-12-16 15:47:00,
2013-12-16 11:02:00,50.2,36.0,30.23,North,5,3.0,-999.0,59,-99.99,,,0.00,weatherlink.com 1.10,2013-12-16 16:02:00,
2013-12-16 11:17:00,51.0,37.0,30.22,North,5,6.0,-999.0,60,-99.99,,,0.00,weatherlink.com 1.10,2013-12-16 16:17:00,
2013-12-16 11:32:00,51.5,36.0,30.22,North,5,4.0,-999.0,56,-99.99,,,0.00,weatherlink.com 1.10,2013-12-16 16:32:00,
2013-12-16 11:47:00,51.9,36.0,30.21,North,5,5.0,-999.0,55,-99.99,,,0.00,weatherlink.com 1.10,2013-12-16 16:47:00,
2013-12-16 12:02:00,53.1,37.0,30.20,North,5,2.0,-999.0,55,-99.99,,,0.00,weatherlink.com 1.10,2013-12-16 17:02:00,
2013-12-16 12:17:00,54.1,37.0,30.19,North,5,3.0,-999.0,53,-99.99,,,0.00,weatherlink.com 1.10,2013-12-16 17:17:00,
2013-12-16 12:32:00,54.6,36.0,30.18,North,5,3.0,-999.0,50,-99.99,,,0.00,weatherlink.com 1.10,2013-12-16 17:32:00,
2013-12-16 12:47:00,55.3,36.0,30.18,North,5,4.0,-999.0,49,-99.99,,,0.00,weatherlink.com 1.10,2013-12-16 17:47:00,
2013-12-16 13:02:00,55.4,37.0,30.17,North,5,2.0,-999.0,50,-99.99,,,0.00,weatherlink.com 1.10,2013-12-16 18:02:00,
2013-12-16 13:17:00,56.2,37.0,30.17,North,5,7.0,-999.0,48,-99.99,,,0.00,weatherlink.com 1.10,2013-12-16 18:17:00,
2013-12-16 13:32:00,56.0,36.0,30.17,North,5,6.0,-999.0,48,-99.99,,,0.00,weatherlink.com 1.10,2013-12-16 18:32:00,
2013-12-16 13:47:00,56.1,39.0,30.17,North,5,3.0,-999.0,54,-99.99,,,0.00,weatherlink.com 1.10,2013-12-16 18:47:00,
2013-12-16 14:02:00,55.6,41.0,30.16,North,5,6.0,-999.0,58,-99.99,,,0.00,weatherlink.com 1.10,2013-12-16 19:02:00,
2013-12-16 14:17:00,55.6,41.0,30.16,North,5,7.0,-999.0,59,-99.99,,,0.00,weatherlink.com 1.10,2013-12-16 19:17:00,
2013-12-16 14:32:00,55.5,42.0,30.17,North,5,7.0,-999.0,61,-99.99,,,0.00,weatherlink.com 1.10,2013-12-16 19:32:00,
2013-12-16 14:47:00,55.6,42.0,30.17,North,5,7.0,-999.0,60,-99.99,,,0.00,weatherlink.com 1.10,2013-12-16 19:47:00,
2013-12-16 15:02:00,55.4,42.0,30.17,North,5,9.0,-999.0,61,-99.99,,,0.00,weatherlink.com 1.10,2013-12-16 20:02:00,
2013-12-16 15:17:00,55.5,42.0,30.17,North,5,7.0,-999.0,61,-99.99,,,0.00,weatherlink.com 1.10,2013-12-16 20:17:00,
2013-12-16 15:32:00,55.3,42.0,30.18,North,5,10.0,-999.0,61,-99.99,,,0.00,weatherlink.com 1.10,2013-12-16 20:32:00,
2013-12-16 15:47:00,55.1,42.0,30.18,North,5,9.0,-999.0,61,-99.99,,,0.00,weatherlink.com 1.10,2013-12-16 20:47:00,
2013-12-16 16:02:00,55.0,42.0,30.18,North,5,10.0,-999.0,63,-99.99,,,0.00,weatherlink.com 1.10,2013-12-16 21:02:00,
2013-12-16 16:17:00,54.5,44.0,30.19,North,5,11.0,-999.0,67,-99.99,,,0.00,weatherlink.com 1.10,2013-12-16 21:17:00,
2013-12-16 16:32:00,54.3,43.0,30.19,North,5,10.0,-999.0,67,-99.99,,,0.00,weatherlink.com 1.10,2013-12-16 21:32:00,
2013-12-16 16:47:00,54.0,44.0,30.19,North,5,11.0,-999.0,69,-99.99,,,0.00,weatherlink.com 1.10,2013-12-16 21:47:00,
2013-12-16 17:02:00,53.5,44.0,30.20,North,5,9.0,-999.0,69,-99.99,,,0.00,weatherlink.com 1.10,2013-12-16 22:02:00,
2013-12-16 17:17:00,53.3,43.0,30.20,North,5,10.0,-999.0,68,-99.99,,,0.00,weatherlink.com 1.10,2013-12-16 22:17:00,
2013-12-16 17:32:00,53.2,44.0,30.20,North,5,9.0,-999.0,72,-99.99,,,0.00,weatherlink.com 1.10,2013-12-16 22:32:00,
2013-12-16 17:47:00,53.2,44.0,30.21,North,5,8.0,-999.0,71,-99.99,,,0.00,weatherlink.com 1.10,2013-12-16 22:47:00,
2013-12-16 18:02:00,53.1,45.0,30.21,North,5,7.0,-999.0,73,-99.99,,,0.00,weatherlink.com 1.10,2013-12-16 23:02:00,
2013-12-16 18:17:00,53.1,46.0,30.21,North,5,8.0,-999.0,77,-99.99,,,0.00,weatherlink.com 1.10,2013-12-16 23:17:00,
2013-12-16 18:32:00,53.0,45.0,30.21,North,5,4.0,-999.0,74,-99.99,,,0.00,weatherlink.com 1.10,2013-12-16 23:32:00,
2013-12-16 18:47:00,53.0,45.0,30.22,North,5,7.0,-999.0,74,-99.99,,,0.00,weatherlink.com 1.10,2013-12-16 23:47:00,
2013-12-16 19:17:00,52.1,45.0,30.22,North,5,3.0,-999.0,76,-99.99,,,0.00,weatherlink.com 1.10,2013-12-17 00:17:00,
2013-12-16 19:32:00,51.3,44.0,30.22,North,5,5.0,-999.0,77,-99.99,,,0.00,weatherlink.com 1.10,2013-12-17 00:32:00,
2013-12-16 19:47:00,50.7,44.0,30.22,North,5,0.0,-999.0,79,-99.99,,,0.00,weatherlink.com 1.10,2013-12-17 00:47:00,
2013-12-16 20:02:00,49.8,45.0,30.22,North,5,0.0,-999.0,82,-99.99,,,0.00,weatherlink.com 1.10,2013-12-17 01:02:00,
2013-12-16 20:17:00,49.5,45.0,30.22,North,5,0.0,-999.0,84,-99.99,,,0.00,weatherlink.com 1.10,2013-12-17 01:17:00,
2013-12-16 20:32:00,48.6,45.0,30.22,North,5,0.0,-999.0,87,-99.99,,,0.00,weatherlink.com 1.10,2013-12-17 01:32:00,
2013-12-16 20:47:00,48.5,45.0,30.22,North,5,0.0,-999.0,88,-99.99,,,0.00,weatherlink.com 1.10,2013-12-17 01:47:00,
2013-12-16 21:02:00,48.0,45.0,30.22,North,5,0.0,-999.0,90,-99.99,,,0.00,weatherlink.com 1.10,2013-12-17 02:02:00,
2013-12-16 21:17:00,48.3,46.0,30.22,North,5,4.0,-999.0,90,-99.99,,,0.00,weatherlink.com 1.10,2013-12-17 02:17:00,
2013-12-16 21:32:00,48.6,46.0,30.22,North,5,3.0,-999.0,90,-99.99,,,0.00,weatherlink.com 1.10,2013-12-17 02:32:00,
2013-12-16 21:47:00,48.4,46.0,30.22,North,5,3.0,-999.0,91,-99.99,,,0.00,weatherlink.com 1.10,2013-12-17 02:47:00,
2013-12-16 22:02:00,49.4,47.0,30.22,North,5,11.0,-999.0,90,-99.99,,,0.00,weatherlink.com 1.10,2013-12-17 03:02:00,
2013-12-16 22:17:00,52.1,47.0,30.23,North,5,9.0,-999.0,83,-99.99,,,0.00,weatherlink.com 1.10,2013-12-17 03:17:00,
2013-12-16 22:32:00,52.5,47.0,30.23,North,5,5.0,-999.0,80,-99.99,,,0.00,weatherlink.com 1.10,2013-12-17 03:32:00,
2013-12-16 22:47:00,51.0,46.0,30.24,North,5,3.0,-999.0,83,-99.99,,,0.00,weatherlink.com 1.10,2013-12-17 03:47:00,
2013-12-16 23:02:00,49.6,46.0,30.24,North,5,5.0,-999.0,86,-99.99,,,0.00,weatherlink.com 1.10,2013-12-17 04:02:00,
2013-12-16 23:17:00,49.2,46.0,30.23,North,5,4.0,-999.0,87,-99.99,,,0.00,weatherlink.com 1.10,2013-12-17 04:17:00,
2013-12-16 23:32:00,49.1,45.0,30.23,North,5,4.0,-999.0,87,-99.99,,,0.00,weatherlink.com 1.10,2013-12-17 04:32:00,
2013-12-16 23:47:00,49.2,46.0,30.23,North,5,5.0,-999.0,88,-99.99,,,0.00,weatherlink.com 1.10,2013-12-17 04:47:00,